sensor_id;sensor_type;location;lat;lon;timestamp;P1;durP1;ratioP1;P2;durP2;ratioP2
50249;SDS011;36133;42.522;27.456;2023-02-01T00:01:36;34.80;;;18.83;;
50249;SDS011;36133;42.522;27.456;2023-02-01T00:04:02;34.72;;;19.48;;
50249;SDS011;36133;42.522;27.456;2023-02-01T00:06:27;41.75;;;21.98;;
50249;SDS011;36133;42.522;27.456;2023-02-01T00:08:53;40.97;;;21.20;;
50249;SDS011;36133;42.522;27.456;2023-02-01T00:11:19;36.15;;;19.60;;
50249;SDS011;36133;42.522;27.456;2023-02-01T00:13:45;33.72;;;18.02;;
50249;SDS011;36133;42.522;27.456;2023-02-01T00:16:18;35.22;;;17.77;;
50249;SDS011;36133;42.522;27.456;2023-02-01T00:18:46;32.28;;;17.70;;
50249;SDS011;36133;42.522;27.456;2023-02-01T00:21:14;32.13;;;16.92;;
50249;SDS011;36133;42.522;27.456;2023-02-01T00:23:41;28.52;;;15.77;;
50249;SDS011;36133;42.522;27.456;2023-02-01T00:26:14;28.20;;;16.35;;
50249;SDS011;36133;42.522;27.456;2023-02-01T00:28:44;28.00;;;15.48;;
50249;SDS011;36133;42.522;27.456;2023-02-01T00:31:10;28.95;;;15.10;;
50249;SDS011;36133;42.522;27.456;2023-02-01T00:33:36;25.35;;;14.68;;
50249;SDS011;36133;42.522;27.456;2023-02-01T00:36:02;27.08;;;15.10;;
50249;SDS011;36133;42.522;27.456;2023-02-01T00:38:30;27.25;;;14.68;;
50249;SDS011;36133;42.522;27.456;2023-02-01T00:41:04;26.13;;;13.77;;
50249;SDS011;36133;42.522;27.456;2023-02-01T00:43:31;28.73;;;15.63;;
50249;SDS011;36133;42.522;27.456;2023-02-01T00:45:57;31.55;;;16.58;;
50249;SDS011;36133;42.522;27.456;2023-02-01T00:48:23;32.50;;;16.55;;
50249;SDS011;36133;42.522;27.456;2023-02-01T00:50:49;33.38;;;16.55;;
50249;SDS011;36133;42.522;27.456;2023-02-01T00:53:15;30.88;;;16.60;;
50249;SDS011;36133;42.522;27.456;2023-02-01T00:55:40;31.30;;;16.27;;
50249;SDS011;36133;42.522;27.456;2023-02-01T00:58:09;33.08;;;16.55;;
50249;SDS011;36133;42.522;27.456;2023-02-01T01:00:34;33.22;;;17.70;;
50249;SDS011;36133;42.522;27.456;2023-02-01T01:03:00;36.90;;;17.85;;
50249;SDS011;36133;42.522;27.456;2023-02-01T01:05:26;31.52;;;18.27;;
50249;SDS011;36133;42.522;27.456;2023-02-01T01:07:52;31.63;;;17.70;;
50249;SDS011;36133;42.522;27.456;2023-02-01T01:10:18;40.58;;;20.25;;
50249;SDS011;36133;42.522;27.456;2023-02-01T01:12:44;38.15;;;19.20;;
50249;SDS011;36133;42.522;27.456;2023-02-01T01:15:10;34.85;;;18.33;;
50249;SDS011;36133;42.522;27.456;2023-02-01T01:17:36;31.35;;;16.90;;
50249;SDS011;36133;42.522;27.456;2023-02-01T01:20:02;33.47;;;18.15;;
50249;SDS011;36133;42.522;27.456;2023-02-01T01:22:28;28.48;;;16.00;;
50249;SDS011;36133;42.522;27.456;2023-02-01T01:24:54;27.88;;;15.13;;
50249;SDS011;36133;42.522;27.456;2023-02-01T01:27:19;28.35;;;14.40;;
50249;SDS011;36133;42.522;27.456;2023-02-01T01:29:48;24.20;;;13.75;;
50249;SDS011;36133;42.522;27.456;2023-02-01T01:32:14;26.25;;;14.07;;
50249;SDS011;36133;42.522;27.456;2023-02-01T01:34:40;26.10;;;14.45;;
50249;SDS011;36133;42.522;27.456;2023-02-01T01:37:06;27.17;;;13.05;;
50249;SDS011;36133;42.522;27.456;2023-02-01T01:39:31;22.42;;;13.02;;
50249;SDS011;36133;42.522;27.456;2023-02-01T01:41:57;23.17;;;13.32;;
50249;SDS011;36133;42.522;27.456;2023-02-01T01:47:25;24.48;;;12.55;;
50249;SDS011;36133;42.522;27.456;2023-02-01T01:49:58;26.13;;;13.52;;
50249;SDS011;36133;42.522;27.456;2023-02-01T01:52:24;22.63;;;12.50;;
50249;SDS011;36133;42.522;27.456;2023-02-01T01:54:50;24.23;;;13.65;;
50249;SDS011;36133;42.522;27.456;2023-02-01T01:57:19;24.30;;;13.45;;
50249;SDS011;36133;42.522;27.456;2023-02-01T01:59:53;24.98;;;13.73;;
50249;SDS011;36133;42.522;27.456;2023-02-01T02:02:25;27.20;;;16.08;;
50249;SDS011;36133;42.522;27.456;2023-02-01T02:04:51;24.27;;;14.02;;
50249;SDS011;36133;42.522;27.456;2023-02-01T02:07:21;25.95;;;13.68;;
50249;SDS011;36133;42.522;27.456;2023-02-01T02:09:52;24.05;;;13.45;;
50249;SDS011;36133;42.522;27.456;2023-02-01T02:12:17;23.80;;;13.18;;
50249;SDS011;36133;42.522;27.456;2023-02-01T02:14:43;25.15;;;12.77;;
50249;SDS011;36133;42.522;27.456;2023-02-01T02:17:27;22.10;;;13.70;;
50249;SDS011;36133;42.522;27.456;2023-02-01T02:22:48;24.63;;;14.05;;
50249;SDS011;36133;42.522;27.456;2023-02-01T02:36:49;22.83;;;13.60;;
50249;SDS011;36133;42.522;27.456;2023-02-01T02:39:59;20.25;;;13.57;;
50249;SDS011;36133;42.522;27.456;2023-02-01T02:46:03;23.42;;;13.48;;
50249;SDS011;36133;42.522;27.456;2023-02-01T02:48:55;20.40;;;13.27;;
50249;SDS011;36133;42.522;27.456;2023-02-01T02:51:29;27.63;;;15.65;;
50249;SDS011;36133;42.522;27.456;2023-02-01T02:54:23;29.08;;;14.77;;
50249;SDS011;36133;42.522;27.456;2023-02-01T02:57:22;24.63;;;13.98;;
50249;SDS011;36133;42.522;27.456;2023-02-01T03:00:12;24.83;;;14.88;;
50249;SDS011;36133;42.522;27.456;2023-02-01T03:03:00;26.80;;;15.07;;
50249;SDS011;36133;42.522;27.456;2023-02-01T03:05:45;24.73;;;14.90;;
50249;SDS011;36133;42.522;27.456;2023-02-01T03:08:14;25.08;;;14.65;;
50249;SDS011;36133;42.522;27.456;2023-02-01T03:11:02;34.35;;;16.95;;
50249;SDS011;36133;42.522;27.456;2023-02-01T03:16:27;27.17;;;15.68;;
50249;SDS011;36133;42.522;27.456;2023-02-01T03:18:55;27.88;;;15.60;;
50249;SDS011;36133;42.522;27.456;2023-02-01T03:23:55;28.42;;;15.27;;
50249;SDS011;36133;42.522;27.456;2023-02-01T03:26:25;29.60;;;15.70;;
50249;SDS011;36133;42.522;27.456;2023-02-01T03:28:58;24.48;;;13.88;;
50249;SDS011;36133;42.522;27.456;2023-02-01T03:31:31;23.23;;;13.68;;
50249;SDS011;36133;42.522;27.456;2023-02-01T03:33:57;23.33;;;14.05;;
50249;SDS011;36133;42.522;27.456;2023-02-01T03:41:56;28.73;;;15.48;;
50249;SDS011;36133;42.522;27.456;2023-02-01T03:44:26;26.52;;;14.70;;
50249;SDS011;36133;42.522;27.456;2023-02-01T03:46:58;25.92;;;14.27;;
50249;SDS011;36133;42.522;27.456;2023-02-01T03:49:34;25.65;;;14.65;;
50249;SDS011;36133;42.522;27.456;2023-02-01T03:52:02;28.33;;;15.70;;
50249;SDS011;36133;42.522;27.456;2023-02-01T03:54:33;24.45;;;14.88;;
50249;SDS011;36133;42.522;27.456;2023-02-01T03:56:59;23.75;;;14.45;;
50249;SDS011;36133;42.522;27.456;2023-02-01T03:59:30;24.13;;;14.00;;
50249;SDS011;36133;42.522;27.456;2023-02-01T04:01:55;26.65;;;13.57;;
50249;SDS011;36133;42.522;27.456;2023-02-01T04:04:21;21.10;;;12.68;;
50249;SDS011;36133;42.522;27.456;2023-02-01T04:06:47;22.30;;;13.27;;
50249;SDS011;36133;42.522;27.456;2023-02-01T04:09:13;22.30;;;13.20;;
50249;SDS011;36133;42.522;27.456;2023-02-01T04:11:39;20.65;;;11.75;;
50249;SDS011;36133;42.522;27.456;2023-02-01T04:14:04;22.48;;;12.65;;
50249;SDS011;36133;42.522;27.456;2023-02-01T04:16:30;20.27;;;12.50;;
50249;SDS011;36133;42.522;27.456;2023-02-01T04:18:57;23.38;;;13.63;;
50249;SDS011;36133;42.522;27.456;2023-02-01T04:21:23;23.50;;;13.38;;
50249;SDS011;36133;42.522;27.456;2023-02-01T04:23:49;22.08;;;13.68;;
50249;SDS011;36133;42.522;27.456;2023-02-01T04:26:15;24.08;;;12.95;;
50249;SDS011;36133;42.522;27.456;2023-02-01T04:28:41;22.65;;;13.95;;
50249;SDS011;36133;42.522;27.456;2023-02-01T04:31:07;28.02;;;14.85;;
50249;SDS011;36133;42.522;27.456;2023-02-01T04:33:33;29.40;;;14.25;;
50249;SDS011;36133;42.522;27.456;2023-02-01T04:35:58;33.53;;;15.23;;
50249;SDS011;36133;42.522;27.456;2023-02-01T04:38:24;26.13;;;14.80;;
50249;SDS011;36133;42.522;27.456;2023-02-01T04:40:49;31.40;;;15.50;;
50249;SDS011;36133;42.522;27.456;2023-02-01T04:43:16;26.05;;;14.15;;
50249;SDS011;36133;42.522;27.456;2023-02-01T04:45:46;28.50;;;15.35;;
50249;SDS011;36133;42.522;27.456;2023-02-01T04:48:12;30.60;;;15.25;;
50249;SDS011;36133;42.522;27.456;2023-02-01T04:50:37;28.17;;;14.20;;
50249;SDS011;36133;42.522;27.456;2023-02-01T04:53:03;23.95;;;13.35;;
50249;SDS011;36133;42.522;27.456;2023-02-01T04:55:28;22.92;;;13.25;;
50249;SDS011;36133;42.522;27.456;2023-02-01T04:57:54;21.80;;;12.40;;
50249;SDS011;36133;42.522;27.456;2023-02-01T05:00:20;20.92;;;12.45;;
50249;SDS011;36133;42.522;27.456;2023-02-01T05:02:46;17.80;;;11.40;;
50249;SDS011;36133;42.522;27.456;2023-02-01T05:05:11;16.27;;;10.52;;
50249;SDS011;36133;42.522;27.456;2023-02-01T05:07:37;18.65;;;11.32;;
50249;SDS011;36133;42.522;27.456;2023-02-01T05:10:02;17.65;;;11.55;;
50249;SDS011;36133;42.522;27.456;2023-02-01T05:12:28;20.45;;;11.48;;
50249;SDS011;36133;42.522;27.456;2023-02-01T05:15:12;19.02;;;11.63;;
50249;SDS011;36133;42.522;27.456;2023-02-01T05:17:38;26.30;;;12.70;;
50249;SDS011;36133;42.522;27.456;2023-02-01T05:20:05;22.13;;;12.85;;
50249;SDS011;36133;42.522;27.456;2023-02-01T05:22:32;23.65;;;12.75;;
50249;SDS011;36133;42.522;27.456;2023-02-01T05:24:57;26.45;;;13.35;;
50249;SDS011;36133;42.522;27.456;2023-02-01T05:27:23;24.30;;;12.68;;
50249;SDS011;36133;42.522;27.456;2023-02-01T05:29:48;25.13;;;14.40;;
50249;SDS011;36133;42.522;27.456;2023-02-01T05:32:14;21.55;;;13.30;;
50249;SDS011;36133;42.522;27.456;2023-02-01T05:34:39;26.45;;;14.57;;
50249;SDS011;36133;42.522;27.456;2023-02-01T05:37:05;25.10;;;13.40;;
50249;SDS011;36133;42.522;27.456;2023-02-01T05:39:30;22.02;;;13.75;;
50249;SDS011;36133;42.522;27.456;2023-02-01T05:41:56;20.50;;;12.80;;
50249;SDS011;36133;42.522;27.456;2023-02-01T05:44:21;22.77;;;12.80;;
50249;SDS011;36133;42.522;27.456;2023-02-01T05:46:47;18.25;;;12.10;;
50249;SDS011;36133;42.522;27.456;2023-02-01T05:49:12;21.83;;;12.85;;
50249;SDS011;36133;42.522;27.456;2023-02-01T05:51:38;18.95;;;10.95;;
50249;SDS011;36133;42.522;27.456;2023-02-01T05:54:03;21.45;;;11.80;;
50249;SDS011;36133;42.522;27.456;2023-02-01T05:56:29;21.65;;;12.82;;
50249;SDS011;36133;42.522;27.456;2023-02-01T05:58:54;21.02;;;12.48;;
50249;SDS011;36133;42.522;27.456;2023-02-01T06:01:20;24.08;;;12.82;;
50249;SDS011;36133;42.522;27.456;2023-02-01T06:03:45;19.77;;;12.15;;
50249;SDS011;36133;42.522;27.456;2023-02-01T06:06:11;21.70;;;12.05;;
50249;SDS011;36133;42.522;27.456;2023-02-01T06:08:36;18.85;;;10.73;;
50249;SDS011;36133;42.522;27.456;2023-02-01T06:11:05;16.92;;;10.65;;
50249;SDS011;36133;42.522;27.456;2023-02-01T06:13:31;15.73;;;9.93;;
50249;SDS011;36133;42.522;27.456;2023-02-01T06:15:57;16.42;;;10.10;;
50249;SDS011;36133;42.522;27.456;2023-02-01T06:18:26;16.13;;;9.85;;
50249;SDS011;36133;42.522;27.456;2023-02-01T06:20:55;14.90;;;9.82;;
50249;SDS011;36133;42.522;27.456;2023-02-01T06:23:22;15.57;;;10.07;;
50249;SDS011;36133;42.522;27.456;2023-02-01T06:26:02;20.38;;;11.07;;
50249;SDS011;36133;42.522;27.456;2023-02-01T06:28:30;20.80;;;10.75;;
50249;SDS011;36133;42.522;27.456;2023-02-01T06:30:57;25.00;;;12.73;;
50249;SDS011;36133;42.522;27.456;2023-02-01T06:33:23;22.27;;;12.68;;
50249;SDS011;36133;42.522;27.456;2023-02-01T06:35:56;20.33;;;12.52;;
50249;SDS011;36133;42.522;27.456;2023-02-01T06:38:23;17.65;;;11.55;;
50249;SDS011;36133;42.522;27.456;2023-02-01T06:40:52;17.20;;;10.43;;
50249;SDS011;36133;42.522;27.456;2023-02-01T06:43:18;14.73;;;9.65;;
50249;SDS011;36133;42.522;27.456;2023-02-01T06:45:44;14.05;;;8.95;;
50249;SDS011;36133;42.522;27.456;2023-02-01T06:48:09;12.38;;;8.60;;
50249;SDS011;36133;42.522;27.456;2023-02-01T06:50:35;15.05;;;8.77;;
50249;SDS011;36133;42.522;27.456;2023-02-01T06:53:00;12.88;;;8.82;;
50249;SDS011;36133;42.522;27.456;2023-02-01T06:55:26;13.20;;;8.55;;
50249;SDS011;36133;42.522;27.456;2023-02-01T06:57:55;14.68;;;8.82;;
50249;SDS011;36133;42.522;27.456;2023-02-01T07:00:23;11.35;;;8.13;;
50249;SDS011;36133;42.522;27.456;2023-02-01T07:02:49;13.82;;;8.63;;
50249;SDS011;36133;42.522;27.456;2023-02-01T07:05:15;13.32;;;8.85;;
50249;SDS011;36133;42.522;27.456;2023-02-01T07:07:40;13.52;;;8.50;;
50249;SDS011;36133;42.522;27.456;2023-02-01T07:10:06;11.18;;;7.90;;
50249;SDS011;36133;42.522;27.456;2023-02-01T07:12:32;12.70;;;8.23;;
50249;SDS011;36133;42.522;27.456;2023-02-01T07:14:57;13.88;;;8.77;;
50249;SDS011;36133;42.522;27.456;2023-02-01T07:17:23;15.25;;;8.80;;
50249;SDS011;36133;42.522;27.456;2023-02-01T07:19:48;12.95;;;8.73;;
50249;SDS011;36133;42.522;27.456;2023-02-01T07:22:17;13.32;;;8.50;;
50249;SDS011;36133;42.522;27.456;2023-02-01T07:24:42;16.63;;;8.35;;
50249;SDS011;36133;42.522;27.456;2023-02-01T07:27:08;14.88;;;8.45;;
50249;SDS011;36133;42.522;27.456;2023-02-01T07:29:33;12.68;;;7.45;;
50249;SDS011;36133;42.522;27.456;2023-02-01T07:31:59;12.05;;;7.70;;
50249;SDS011;36133;42.522;27.456;2023-02-01T07:34:25;10.93;;;6.85;;
50249;SDS011;36133;42.522;27.456;2023-02-01T07:36:51;9.65;;;7.07;;
50249;SDS011;36133;42.522;27.456;2023-02-01T07:39:17;9.88;;;7.25;;
50249;SDS011;36133;42.522;27.456;2023-02-01T07:41:42;12.38;;;6.57;;
50249;SDS011;36133;42.522;27.456;2023-02-01T07:44:09;12.43;;;6.63;;
50249;SDS011;36133;42.522;27.456;2023-02-01T07:46:34;9.77;;;7.43;;
50249;SDS011;36133;42.522;27.456;2023-02-01T07:49:01;10.98;;;7.53;;
50249;SDS011;36133;42.522;27.456;2023-02-01T07:51:27;10.10;;;7.25;;
50249;SDS011;36133;42.522;27.456;2023-02-01T07:53:53;11.32;;;7.53;;
50249;SDS011;36133;42.522;27.456;2023-02-01T07:56:19;12.13;;;7.15;;
50249;SDS011;36133;42.522;27.456;2023-02-01T07:58:48;11.02;;;6.53;;
50249;SDS011;36133;42.522;27.456;2023-02-01T08:01:18;9.98;;;6.97;;
50249;SDS011;36133;42.522;27.456;2023-02-01T08:03:59;9.80;;;5.80;;
50249;SDS011;36133;42.522;27.456;2023-02-01T08:06:26;8.20;;;5.68;;
50249;SDS011;36133;42.522;27.456;2023-02-01T08:08:57;8.45;;;5.68;;
50249;SDS011;36133;42.522;27.456;2023-02-01T08:11:23;14.40;;;5.35;;
50249;SDS011;36133;42.522;27.456;2023-02-01T08:13:50;11.63;;;5.30;;
50249;SDS011;36133;42.522;27.456;2023-02-01T08:16:16;7.25;;;4.97;;
50249;SDS011;36133;42.522;27.456;2023-02-01T08:18:43;12.93;;;5.82;;
50249;SDS011;36133;42.522;27.456;2023-02-01T08:23:37;10.80;;;5.32;;
50249;SDS011;36133;42.522;27.456;2023-02-01T08:26:08;12.55;;;5.22;;
50249;SDS011;36133;42.522;27.456;2023-02-01T08:31:10;9.13;;;4.88;;
50249;SDS011;36133;42.522;27.456;2023-02-01T08:33:40;7.95;;;4.50;;
50249;SDS011;36133;42.522;27.456;2023-02-01T08:36:07;8.10;;;4.60;;
50249;SDS011;36133;42.522;27.456;2023-02-01T08:38:37;11.02;;;5.55;;
50249;SDS011;36133;42.522;27.456;2023-02-01T08:41:23;8.00;;;4.80;;
50249;SDS011;36133;42.522;27.456;2023-02-01T08:43:51;6.40;;;3.95;;
50249;SDS011;36133;42.522;27.456;2023-02-01T08:46:19;7.15;;;4.93;;
50249;SDS011;36133;42.522;27.456;2023-02-01T08:48:45;10.48;;;4.70;;
50249;SDS011;36133;42.522;27.456;2023-02-01T08:51:12;5.32;;;3.85;;
50249;SDS011;36133;42.522;27.456;2023-02-01T08:53:39;7.57;;;4.40;;
50249;SDS011;36133;42.522;27.456;2023-02-01T08:56:06;9.20;;;3.75;;
50249;SDS011;36133;42.522;27.456;2023-02-01T08:58:32;8.85;;;4.13;;
50249;SDS011;36133;42.522;27.456;2023-02-01T09:01:13;6.22;;;3.35;;
50249;SDS011;36133;42.522;27.456;2023-02-01T09:03:40;8.57;;;3.83;;
50249;SDS011;36133;42.522;27.456;2023-02-01T09:06:10;7.85;;;3.95;;
50249;SDS011;36133;42.522;27.456;2023-02-01T09:08:37;8.02;;;3.90;;
50249;SDS011;36133;42.522;27.456;2023-02-01T09:11:04;9.63;;;4.38;;
50249;SDS011;36133;42.522;27.456;2023-02-01T09:13:32;8.82;;;3.97;;
50249;SDS011;36133;42.522;27.456;2023-02-01T09:15:58;7.32;;;4.25;;
50249;SDS011;36133;42.522;27.456;2023-02-01T09:18:25;9.55;;;4.22;;
50249;SDS011;36133;42.522;27.456;2023-02-01T09:20:51;8.15;;;3.88;;
50249;SDS011;36133;42.522;27.456;2023-02-01T09:23:16;6.40;;;3.65;;
50249;SDS011;36133;42.522;27.456;2023-02-01T09:25:45;14.43;;;4.25;;
50249;SDS011;36133;42.522;27.456;2023-02-01T09:28:11;9.25;;;3.85;;
50249;SDS011;36133;42.522;27.456;2023-02-01T09:30:36;6.88;;;3.88;;
50249;SDS011;36133;42.522;27.456;2023-02-01T09:33:02;6.07;;;3.67;;
50249;SDS011;36133;42.522;27.456;2023-02-01T09:35:28;7.15;;;3.55;;
50249;SDS011;36133;42.522;27.456;2023-02-01T09:37:54;6.53;;;3.60;;
50249;SDS011;36133;42.522;27.456;2023-02-01T09:40:20;9.90;;;3.97;;
50249;SDS011;36133;42.522;27.456;2023-02-01T09:48:17;7.78;;;3.60;;
50249;SDS011;36133;42.522;27.456;2023-02-01T09:50:54;10.18;;;3.70;;
50249;SDS011;36133;42.522;27.456;2023-02-01T09:53:27;5.97;;;3.63;;
50249;SDS011;36133;42.522;27.456;2023-02-01T09:56:02;9.85;;;5.82;;
50249;SDS011;36133;42.522;27.456;2023-02-01T10:01:03;7.20;;;3.60;;
50249;SDS011;36133;42.522;27.456;2023-02-01T10:03:35;9.63;;;4.38;;
50249;SDS011;36133;42.522;27.456;2023-02-01T10:11:39;12.50;;;6.72;;
50249;SDS011;36133;42.522;27.456;2023-02-01T10:16:51;12.48;;;6.07;;
50249;SDS011;36133;42.522;27.456;2023-02-01T10:22:18;5.97;;;3.33;;
50249;SDS011;36133;42.522;27.456;2023-02-01T10:27:48;6.30;;;4.03;;
50249;SDS011;36133;42.522;27.456;2023-02-01T10:30:21;6.78;;;3.90;;
50249;SDS011;36133;42.522;27.456;2023-02-01T10:32:49;7.28;;;3.80;;
50249;SDS011;36133;42.522;27.456;2023-02-01T10:35:33;7.88;;;4.30;;
50249;SDS011;36133;42.522;27.456;2023-02-01T10:38:01;7.22;;;4.20;;
50249;SDS011;36133;42.522;27.456;2023-02-01T10:40:28;10.88;;;4.60;;
50249;SDS011;36133;42.522;27.456;2023-02-01T10:42:56;5.20;;;3.20;;
50249;SDS011;36133;42.522;27.456;2023-02-01T10:45:26;6.72;;;3.45;;
50249;SDS011;36133;42.522;27.456;2023-02-01T10:47:54;6.05;;;3.35;;
50249;SDS011;36133;42.522;27.456;2023-02-01T10:50:35;6.80;;;3.95;;
50249;SDS011;36133;42.522;27.456;2023-02-01T10:53:16;11.30;;;3.83;;
50249;SDS011;36133;42.522;27.456;2023-02-01T10:55:48;10.05;;;4.15;;
50249;SDS011;36133;42.522;27.456;2023-02-01T11:00:54;6.15;;;3.90;;
50249;SDS011;36133;42.522;27.456;2023-02-01T11:06:29;8.63;;;3.90;;
50249;SDS011;36133;42.522;27.456;2023-02-01T11:09:09;8.45;;;4.32;;
50249;SDS011;36133;42.522;27.456;2023-02-01T11:14:16;10.27;;;5.03;;
50249;SDS011;36133;42.522;27.456;2023-02-01T11:19:20;6.65;;;4.20;;
50249;SDS011;36133;42.522;27.456;2023-02-01T11:21:50;8.00;;;4.38;;
50249;SDS011;36133;42.522;27.456;2023-02-01T11:24:38;7.35;;;4.30;;
50249;SDS011;36133;42.522;27.456;2023-02-01T11:27:04;15.77;;;4.05;;
50249;SDS011;36133;42.522;27.456;2023-02-01T11:29:38;5.68;;;3.63;;
50249;SDS011;36133;42.522;27.456;2023-02-01T11:32:08;7.78;;;3.65;;
50249;SDS011;36133;42.522;27.456;2023-02-01T11:37:28;8.07;;;2.90;;
50249;SDS011;36133;42.522;27.456;2023-02-01T11:39:55;3.53;;;2.70;;
50249;SDS011;36133;42.522;27.456;2023-02-01T11:42:22;7.60;;;4.00;;
50249;SDS011;36133;42.522;27.456;2023-02-01T11:44:49;9.07;;;4.40;;
50249;SDS011;36133;42.522;27.456;2023-02-01T11:47:22;5.38;;;3.25;;
50249;SDS011;36133;42.522;27.456;2023-02-01T11:50:08;6.13;;;2.58;;
50249;SDS011;36133;42.522;27.456;2023-02-01T12:22:44;6.30;;;2.53;;
50249;SDS011;36133;42.522;27.456;2023-02-01T12:25:37;4.05;;;2.40;;
50249;SDS011;36133;42.522;27.456;2023-02-01T12:34:30;9.75;;;3.65;;
50249;SDS011;36133;42.522;27.456;2023-02-01T12:42:23;6.40;;;2.35;;
50249;SDS011;36133;42.522;27.456;2023-02-01T12:44:59;5.35;;;2.40;;
50249;SDS011;36133;42.522;27.456;2023-02-01T12:50:03;4.40;;;2.38;;
50249;SDS011;36133;42.522;27.456;2023-02-01T12:52:34;4.95;;;2.60;;
50249;SDS011;36133;42.522;27.456;2023-02-01T12:57:53;5.43;;;3.65;;
50249;SDS011;36133;42.522;27.456;2023-02-01T13:08:14;10.77;;;4.45;;
50249;SDS011;36133;42.522;27.456;2023-02-01T13:11:05;6.68;;;4.20;;
50249;SDS011;36133;42.522;27.456;2023-02-01T13:16:30;13.30;;;4.93;;
50249;SDS011;36133;42.522;27.456;2023-02-01T13:19:05;6.30;;;3.70;;
50249;SDS011;36133;42.522;27.456;2023-02-01T13:21:46;11.30;;;4.38;;
50249;SDS011;36133;42.522;27.456;2023-02-01T13:25:03;9.68;;;5.40;;
50249;SDS011;36133;42.522;27.456;2023-02-01T13:27:14;8.88;;;5.32;;
50249;SDS011;36133;42.522;27.456;2023-02-01T13:29:45;10.30;;;5.28;;
50249;SDS011;36133;42.522;27.456;2023-02-01T13:32:19;15.77;;;7.90;;
50249;SDS011;36133;42.522;27.456;2023-02-01T13:42:56;7.75;;;4.10;;
50249;SDS011;36133;42.522;27.456;2023-02-01T13:45:26;7.10;;;3.78;;
50249;SDS011;36133;42.522;27.456;2023-02-01T13:47:58;6.65;;;4.28;;
50249;SDS011;36133;42.522;27.456;2023-02-01T13:55:40;10.20;;;4.13;;
50249;SDS011;36133;42.522;27.456;2023-02-01T14:00:38;6.95;;;4.07;;
50249;SDS011;36133;42.522;27.456;2023-02-01T14:11:18;15.83;;;6.57;;
50249;SDS011;36133;42.522;27.456;2023-02-01T14:13:26;9.13;;;4.88;;
50249;SDS011;36133;42.522;27.456;2023-02-01T14:26:15;10.43;;;5.20;;
50249;SDS011;36133;42.522;27.456;2023-02-01T14:28:49;9.07;;;4.28;;
50249;SDS011;36133;42.522;27.456;2023-02-01T14:34:16;7.10;;;5.03;;
50249;SDS011;36133;42.522;27.456;2023-02-01T14:36:46;11.80;;;6.38;;
50249;SDS011;36133;42.522;27.456;2023-02-01T14:39:22;14.27;;;7.40;;
50249;SDS011;36133;42.522;27.456;2023-02-01T14:42:05;13.77;;;8.20;;
50249;SDS011;36133;42.522;27.456;2023-02-01T14:44:46;16.30;;;8.65;;
50249;SDS011;36133;42.522;27.456;2023-02-01T14:49:55;11.35;;;6.00;;
50249;SDS011;36133;42.522;27.456;2023-02-01T14:52:22;10.93;;;7.22;;
50249;SDS011;36133;42.522;27.456;2023-02-01T14:54:55;11.32;;;5.68;;
50249;SDS011;36133;42.522;27.456;2023-02-01T14:57:25;7.00;;;4.75;;
50249;SDS011;36133;42.522;27.456;2023-02-01T15:00:16;10.32;;;4.45;;
50249;SDS011;36133;42.522;27.456;2023-02-01T15:02:41;9.57;;;3.70;;
50249;SDS011;36133;42.522;27.456;2023-02-01T15:05:31;6.05;;;3.50;;
50249;SDS011;36133;42.522;27.456;2023-02-01T15:08:04;8.45;;;3.47;;
50249;SDS011;36133;42.522;27.456;2023-02-01T15:10:39;5.43;;;3.50;;
50249;SDS011;36133;42.522;27.456;2023-02-01T15:13:18;10.20;;;3.92;;
50249;SDS011;36133;42.522;27.456;2023-02-01T15:18:29;5.63;;;3.55;;
50249;SDS011;36133;42.522;27.456;2023-02-01T15:20:59;8.82;;;3.63;;
50249;SDS011;36133;42.522;27.456;2023-02-01T15:23:26;9.00;;;4.00;;
50249;SDS011;36133;42.522;27.456;2023-02-01T15:25:52;6.13;;;3.72;;
50249;SDS011;36133;42.522;27.456;2023-02-01T15:28:18;8.80;;;3.40;;
50249;SDS011;36133;42.522;27.456;2023-02-01T15:30:54;9.95;;;3.78;;
50249;SDS011;36133;42.522;27.456;2023-02-01T15:33:25;7.07;;;3.55;;
50249;SDS011;36133;42.522;27.456;2023-02-01T15:35:54;9.27;;;4.05;;
50249;SDS011;36133;42.522;27.456;2023-02-01T15:43:33;5.95;;;3.33;;
50249;SDS011;36133;42.522;27.456;2023-02-01T15:46:33;12.45;;;4.47;;
50249;SDS011;36133;42.522;27.456;2023-02-01T15:49:01;9.45;;;3.97;;
50249;SDS011;36133;42.522;27.456;2023-02-01T15:51:28;9.88;;;3.85;;
50249;SDS011;36133;42.522;27.456;2023-02-01T15:56:38;15.15;;;3.80;;
50249;SDS011;36133;42.522;27.456;2023-02-01T15:59:20;6.35;;;3.42;;
50249;SDS011;36133;42.522;27.456;2023-02-01T16:01:53;8.57;;;3.95;;
50249;SDS011;36133;42.522;27.456;2023-02-01T16:04:23;8.60;;;4.70;;
50249;SDS011;36133;42.522;27.456;2023-02-01T16:06:59;7.00;;;4.30;;
50249;SDS011;36133;42.522;27.456;2023-02-01T16:09:41;10.48;;;5.38;;
50249;SDS011;36133;42.522;27.456;2023-02-01T16:12:23;11.77;;;5.93;;
50249;SDS011;36133;42.522;27.456;2023-02-01T16:14:52;11.00;;;5.68;;
50249;SDS011;36133;42.522;27.456;2023-02-01T16:17:17;10.27;;;5.30;;
50249;SDS011;36133;42.522;27.456;2023-02-01T16:19:43;10.23;;;5.22;;
50249;SDS011;36133;42.522;27.456;2023-02-01T16:22:08;10.88;;;6.07;;
50249;SDS011;36133;42.522;27.456;2023-02-01T16:24:34;18.75;;;5.97;;
50249;SDS011;36133;42.522;27.456;2023-02-01T16:26:59;9.85;;;6.38;;
50249;SDS011;36133;42.522;27.456;2023-02-01T16:29:25;11.48;;;6.40;;
50249;SDS011;36133;42.522;27.456;2023-02-01T16:31:50;17.70;;;7.43;;
50249;SDS011;36133;42.522;27.456;2023-02-01T16:34:17;12.45;;;5.78;;
50249;SDS011;36133;42.522;27.456;2023-02-01T16:36:43;13.80;;;7.28;;
50249;SDS011;36133;42.522;27.456;2023-02-01T16:39:17;35.63;;;15.75;;
50249;SDS011;36133;42.522;27.456;2023-02-01T16:41:43;38.20;;;16.67;;
50249;SDS011;36133;42.522;27.456;2023-02-01T16:44:10;35.65;;;16.45;;
50249;SDS011;36133;42.522;27.456;2023-02-01T16:46:41;32.35;;;15.10;;
50249;SDS011;36133;42.522;27.456;2023-02-01T16:49:17;29.67;;;13.55;;
50249;SDS011;36133;42.522;27.456;2023-02-01T16:51:45;15.25;;;8.45;;
50249;SDS011;36133;42.522;27.456;2023-02-01T16:54:12;15.18;;;7.32;;
50249;SDS011;36133;42.522;27.456;2023-02-01T16:56:37;13.45;;;6.78;;
50249;SDS011;36133;42.522;27.456;2023-02-01T16:59:07;11.60;;;6.70;;
50249;SDS011;36133;42.522;27.456;2023-02-01T17:01:33;11.27;;;6.22;;
50249;SDS011;36133;42.522;27.456;2023-02-01T17:03:59;9.40;;;6.05;;
50249;SDS011;36133;42.522;27.456;2023-02-01T17:06:25;15.00;;;7.07;;
50249;SDS011;36133;42.522;27.456;2023-02-01T17:08:57;8.82;;;6.13;;
50249;SDS011;36133;42.522;27.456;2023-02-01T17:11:24;12.52;;;6.75;;
50249;SDS011;36133;42.522;27.456;2023-02-01T17:13:50;10.00;;;4.97;;
50249;SDS011;36133;42.522;27.456;2023-02-01T17:18:46;6.53;;;4.40;;
50249;SDS011;36133;42.522;27.456;2023-02-01T17:21:17;6.22;;;3.65;;
50249;SDS011;36133;42.522;27.456;2023-02-01T17:23:43;7.65;;;4.07;;
50249;SDS011;36133;42.522;27.456;2023-02-01T17:26:10;6.75;;;3.88;;
50249;SDS011;36133;42.522;27.456;2023-02-01T17:28:36;8.38;;;4.53;;
50249;SDS011;36133;42.522;27.456;2023-02-01T17:31:01;6.07;;;4.05;;
50249;SDS011;36133;42.522;27.456;2023-02-01T17:33:29;7.07;;;4.40;;
50249;SDS011;36133;42.522;27.456;2023-02-01T17:35:58;11.13;;;5.15;;
50249;SDS011;36133;42.522;27.456;2023-02-01T17:38:24;9.25;;;5.07;;